sensor_id;sensor_type;location;lat;lon;timestamp;P1;durP1;ratioP1;P2;durP2;ratioP2
21917;SDS011;11123;49.882;8.662;2022-09-27T00:01:00;3.72;;;2.15;;
21917;SDS011;11123;49.882;8.662;2022-09-27T00:03:30;4.88;;;2.38;;
21917;SDS011;11123;49.882;8.662;2022-09-27T00:06:04;3.92;;;2.53;;
21917;SDS011;11123;49.882;8.662;2022-09-27T00:08:34;5.15;;;2.53;;
21917;SDS011;11123;49.882;8.662;2022-09-27T00:11:04;3.67;;;2.28;;
21917;SDS011;11123;49.882;8.662;2022-09-27T00:13:34;3.90;;;2.20;;
21917;SDS011;11123;49.882;8.662;2022-09-27T00:16:02;4.20;;;2.70;;
21917;SDS011;11123;49.882;8.662;2022-09-27T00:18:31;5.45;;;2.63;;
21917;SDS011;11123;49.882;8.662;2022-09-27T00:21:06;4.15;;;2.58;;
21917;SDS011;11123;49.882;8.662;2022-09-27T00:23:36;5.70;;;2.70;;
21917;SDS011;11123;49.882;8.662;2022-09-27T00:26:05;4.32;;;2.70;;
21917;SDS011;11123;49.882;8.662;2022-09-27T00:28:35;5.20;;;3.10;;
21917;SDS011;11123;49.882;8.662;2022-09-27T00:31:03;6.55;;;2.85;;
21917;SDS011;11123;49.882;8.662;2022-09-27T00:33:37;4.35;;;2.65;;
21917;SDS011;11123;49.882;8.662;2022-09-27T00:36:08;4.25;;;2.65;;
21917;SDS011;11123;49.882;8.662;2022-09-27T00:38:37;4.18;;;2.63;;
21917;SDS011;11123;49.882;8.662;2022-09-27T00:41:08;4.25;;;2.25;;
21917;SDS011;11123;49.882;8.662;2022-09-27T00:43:44;4.40;;;2.22;;
21917;SDS011;11123;49.882;8.662;2022-09-27T00:46:18;3.38;;;2.15;;
21917;SDS011;11123;49.882;8.662;2022-09-27T00:48:52;3.03;;;2.00;;
21917;SDS011;11123;49.882;8.662;2022-09-27T00:51:29;4.95;;;2.60;;
21917;SDS011;11123;49.882;8.662;2022-09-27T00:54:00;4.18;;;2.20;;
21917;SDS011;11123;49.882;8.662;2022-09-27T00:56:29;3.78;;;2.50;;
21917;SDS011;11123;49.882;8.662;2022-09-27T00:59:00;5.28;;;2.58;;
21917;SDS011;11123;49.882;8.662;2022-09-27T01:01:34;4.15;;;2.60;;
21917;SDS011;11123;49.882;8.662;2022-09-27T01:04:06;4.00;;;2.40;;
21917;SDS011;11123;49.882;8.662;2022-09-27T01:06:38;3.70;;;2.42;;
21917;SDS011;11123;49.882;8.662;2022-09-27T01:09:07;4.25;;;2.67;;
21917;SDS011;11123;49.882;8.662;2022-09-27T01:11:39;4.80;;;3.15;;
21917;SDS011;11123;49.882;8.662;2022-09-27T01:14:11;4.60;;;2.75;;
21917;SDS011;11123;49.882;8.662;2022-09-27T01:17:00;5.10;;;2.80;;
21917;SDS011;11123;49.882;8.662;2022-09-27T01:19:42;5.18;;;2.92;;
21917;SDS011;11123;49.882;8.662;2022-09-27T01:22:29;3.80;;;2.40;;
21917;SDS011;11123;49.882;8.662;2022-09-27T01:25:11;5.43;;;2.45;;
21917;SDS011;11123;49.882;8.662;2022-09-27T01:28:04;4.75;;;2.38;;
21917;SDS011;11123;49.882;8.662;2022-09-27T01:30:49;6.95;;;2.15;;
21917;SDS011;11123;49.882;8.662;2022-09-27T01:33:27;4.47;;;2.10;;
21917;SDS011;11123;49.882;8.662;2022-09-27T01:36:05;3.58;;;2.22;;
21917;SDS011;11123;49.882;8.662;2022-09-27T01:38:44;4.53;;;2.20;;
21917;SDS011;11123;49.882;8.662;2022-09-27T01:41:22;3.78;;;2.00;;
21917;SDS011;11123;49.882;8.662;2022-09-27T01:44:19;3.95;;;2.10;;
21917;SDS011;11123;49.882;8.662;2022-09-27T01:47:06;5.00;;;2.13;;
21917;SDS011;11123;49.882;8.662;2022-09-27T01:49:46;3.65;;;1.77;;
21917;SDS011;11123;49.882;8.662;2022-09-27T01:52:19;3.63;;;1.77;;
21917;SDS011;11123;49.882;8.662;2022-09-27T01:54:52;3.70;;;2.08;;
21917;SDS011;11123;49.882;8.662;2022-09-27T01:57:30;4.57;;;2.00;;
21917;SDS011;11123;49.882;8.662;2022-09-27T02:00:05;3.30;;;1.70;;
21917;SDS011;11123;49.882;8.662;2022-09-27T02:02:42;2.97;;;1.90;;
21917;SDS011;11123;49.882;8.662;2022-09-27T02:05:41;3.10;;;1.80;;
21917;SDS011;11123;49.882;8.662;2022-09-27T02:08:37;4.40;;;2.00;;
21917;SDS011;11123;49.882;8.662;2022-09-27T02:11:37;4.75;;;1.60;;
21917;SDS011;11123;49.882;8.662;2022-09-27T02:14:14;2.88;;;1.30;;
21917;SDS011;11123;49.882;8.662;2022-09-27T02:16:52;3.85;;;1.48;;
21917;SDS011;11123;49.882;8.662;2022-09-27T02:19:31;4.20;;;1.38;;
21917;SDS011;11123;49.882;8.662;2022-09-27T02:22:11;3.55;;;1.73;;
21917;SDS011;11123;49.882;8.662;2022-09-27T02:24:44;2.95;;;1.30;;
21917;SDS011;11123;49.882;8.662;2022-09-27T02:27:17;3.60;;;1.42;;
21917;SDS011;11123;49.882;8.662;2022-09-27T02:29:52;5.00;;;1.52;;
21917;SDS011;11123;49.882;8.662;2022-09-27T02:32:28;4.53;;;1.30;;
21917;SDS011;11123;49.882;8.662;2022-09-27T02:35:00;3.30;;;1.48;;
21917;SDS011;11123;49.882;8.662;2022-09-27T02:37:32;3.78;;;1.50;;
21917;SDS011;11123;49.882;8.662;2022-09-27T02:40:00;4.95;;;1.70;;
21917;SDS011;11123;49.882;8.662;2022-09-27T02:42:30;4.30;;;1.40;;
21917;SDS011;11123;49.882;8.662;2022-09-27T02:45:00;3.63;;;1.63;;
21917;SDS011;11123;49.882;8.662;2022-09-27T02:47:36;3.55;;;1.70;;
21917;SDS011;11123;49.882;8.662;2022-09-27T02:50:21;4.38;;;1.70;;
21917;SDS011;11123;49.882;8.662;2022-09-27T02:53:21;4.50;;;1.60;;
21917;SDS011;11123;49.882;8.662;2022-09-27T02:56:06;5.85;;;1.77;;
21917;SDS011;11123;49.882;8.662;2022-09-27T02:59:15;3.83;;;1.63;;
21917;SDS011;11123;49.882;8.662;2022-09-27T03:02:06;6.15;;;2.00;;
21917;SDS011;11123;49.882;8.662;2022-09-27T03:05:06;5.32;;;1.67;;
21917;SDS011;11123;49.882;8.662;2022-09-27T03:07:40;5.85;;;1.40;;
21917;SDS011;11123;49.882;8.662;2022-09-27T03:10:14;4.80;;;1.40;;
21917;SDS011;11123;49.882;8.662;2022-09-27T03:12:44;5.03;;;1.23;;
21917;SDS011;11123;49.882;8.662;2022-09-27T03:15:12;4.30;;;1.65;;
21917;SDS011;11123;49.882;8.662;2022-09-27T03:17:59;3.78;;;1.42;;
21917;SDS011;11123;49.882;8.662;2022-09-27T03:20:37;3.30;;;1.50;;
21917;SDS011;11123;49.882;8.662;2022-09-27T03:23:16;3.97;;;1.63;;
21917;SDS011;11123;49.882;8.662;2022-09-27T03:25:44;3.25;;;1.20;;
21917;SDS011;11123;49.882;8.662;2022-09-27T03:28:13;3.55;;;1.27;;
21917;SDS011;11123;49.882;8.662;2022-09-27T03:30:43;5.22;;;1.52;;
21917;SDS011;11123;49.882;8.662;2022-09-27T03:33:28;6.07;;;1.20;;
21917;SDS011;11123;49.882;8.662;2022-09-27T03:35:58;3.05;;;1.10;;
21917;SDS011;11123;49.882;8.662;2022-09-27T03:38:27;4.97;;;1.00;;
21917;SDS011;11123;49.882;8.662;2022-09-27T03:40:56;2.92;;;1.20;;
21917;SDS011;11123;49.882;8.662;2022-09-27T03:43:24;2.95;;;0.85;;
21917;SDS011;11123;49.882;8.662;2022-09-27T03:45:56;3.30;;;0.80;;
21917;SDS011;11123;49.882;8.662;2022-09-27T03:48:25;1.95;;;0.75;;
21917;SDS011;11123;49.882;8.662;2022-09-27T03:50:54;1.95;;;0.90;;
21917;SDS011;11123;49.882;8.662;2022-09-27T03:53:22;2.00;;;0.68;;
21917;SDS011;11123;49.882;8.662;2022-09-27T03:55:52;3.25;;;1.00;;
21917;SDS011;11123;49.882;8.662;2022-09-27T03:58:21;2.28;;;0.80;;
21917;SDS011;11123;49.882;8.662;2022-09-27T04:00:50;3.83;;;1.15;;
21917;SDS011;11123;49.882;8.662;2022-09-27T04:03:18;1.92;;;0.70;;
21917;SDS011;11123;49.882;8.662;2022-09-27T04:06:05;2.75;;;0.85;;
21917;SDS011;11123;49.882;8.662;2022-09-27T04:08:39;2.10;;;0.90;;
21917;SDS011;11123;49.882;8.662;2022-09-27T04:11:10;1.75;;;0.70;;
21917;SDS011;11123;49.882;8.662;2022-09-27T04:13:41;4.22;;;0.68;;
21917;SDS011;11123;49.882;8.662;2022-09-27T04:16:11;4.28;;;0.60;;
21917;SDS011;11123;49.882;8.662;2022-09-27T04:18:53;0.95;;;0.40;;
21917;SDS011;11123;49.882;8.662;2022-09-27T04:21:36;1.35;;;0.43;;
21917;SDS011;11123;49.882;8.662;2022-09-27T04:24:07;1.15;;;0.30;;
21917;SDS011;11123;49.882;8.662;2022-09-27T04:26:40;0.93;;;0.38;;
21917;SDS011;11123;49.882;8.662;2022-09-27T04:29:11;1.02;;;0.40;;
21917;SDS011;11123;49.882;8.662;2022-09-27T04:31:46;2.90;;;0.25;;
21917;SDS011;11123;49.882;8.662;2022-09-27T04:34:33;1.98;;;0.30;;
21917;SDS011;11123;49.882;8.662;2022-09-27T04:37:22;1.65;;;0.40;;
21917;SDS011;11123;49.882;8.662;2022-09-27T04:39:59;1.40;;;0.40;;
21917;SDS011;11123;49.882;8.662;2022-09-27T04:42:30;3.90;;;0.50;;
21917;SDS011;11123;49.882;8.662;2022-09-27T04:44:59;1.08;;;0.40;;
21917;SDS011;11123;49.882;8.662;2022-09-27T04:47:28;2.03;;;0.60;;
21917;SDS011;11123;49.882;8.662;2022-09-27T04:49:56;1.70;;;0.50;;
21917;SDS011;11123;49.882;8.662;2022-09-27T04:52:24;1.73;;;0.40;;
21917;SDS011;11123;49.882;8.662;2022-09-27T04:54:53;1.27;;;0.40;;
21917;SDS011;11123;49.882;8.662;2022-09-27T04:57:21;1.17;;;0.40;;
21917;SDS011;11123;49.882;8.662;2022-09-27T04:59:52;0.90;;;0.40;;
21917;SDS011;11123;49.882;8.662;2022-09-27T05:02:21;3.50;;;0.40;;
21917;SDS011;11123;49.882;8.662;2022-09-27T05:05:21;1.98;;;0.50;;
21917;SDS011;11123;49.882;8.662;2022-09-27T05:07:50;2.17;;;0.70;;
21917;SDS011;11123;49.882;8.662;2022-09-27T05:10:30;0.95;;;0.32;;
21917;SDS011;11123;49.882;8.662;2022-09-27T05:12:58;2.33;;;0.80;;
21917;SDS011;11123;49.882;8.662;2022-09-27T05:15:29;5.35;;;0.60;;
21917;SDS011;11123;49.882;8.662;2022-09-27T05:18:18;3.00;;;0.60;;
21917;SDS011;11123;49.882;8.662;2022-09-27T05:21:06;1.10;;;0.40;;
21917;SDS011;11123;49.882;8.662;2022-09-27T05:23:40;1.50;;;0.55;;
21917;SDS011;11123;49.882;8.662;2022-09-27T05:26:13;1.02;;;0.50;;
21917;SDS011;11123;49.882;8.662;2022-09-27T05:28:41;1.60;;;0.50;;
21917;SDS011;11123;49.882;8.662;2022-09-27T05:31:14;5.68;;;0.85;;
21917;SDS011;11123;49.882;8.662;2022-09-27T05:33:43;2.03;;;0.60;;
21917;SDS011;11123;49.882;8.662;2022-09-27T05:36:32;1.55;;;0.60;;
21917;SDS011;11123;49.882;8.662;2022-09-27T05:39:02;3.80;;;0.52;;
21917;SDS011;11123;49.882;8.662;2022-09-27T05:41:30;2.22;;;0.60;;
21917;SDS011;11123;49.882;8.662;2022-09-27T05:44:00;1.30;;;0.50;;
21917;SDS011;11123;49.882;8.662;2022-09-27T05:46:30;1.50;;;0.50;;
21917;SDS011;11123;49.882;8.662;2022-09-27T05:48:58;2.42;;;0.40;;
21917;SDS011;11123;49.882;8.662;2022-09-27T05:51:28;1.70;;;0.50;;
21917;SDS011;11123;49.882;8.662;2022-09-27T05:53:56;3.00;;;0.60;;
21917;SDS011;11123;49.882;8.662;2022-09-27T05:56:27;1.50;;;0.63;;
21917;SDS011;11123;49.882;8.662;2022-09-27T05:59:14;1.02;;;0.50;;
21917;SDS011;11123;49.882;8.662;2022-09-27T06:02:02;1.48;;;0.60;;
21917;SDS011;11123;49.882;8.662;2022-09-27T06:04:49;1.70;;;0.50;;
21917;SDS011;11123;49.882;8.662;2022-09-27T06:07:37;1.08;;;0.40;;
21917;SDS011;11123;49.882;8.662;2022-09-27T06:10:12;1.88;;;0.60;;
21917;SDS011;11123;49.882;8.662;2022-09-27T06:12:40;2.30;;;0.60;;
21917;SDS011;11123;49.882;8.662;2022-09-27T06:15:23;1.65;;;0.60;;
21917;SDS011;11123;49.882;8.662;2022-09-27T06:17:53;3.38;;;0.63;;
21917;SDS011;11123;49.882;8.662;2022-09-27T06:20:21;2.90;;;0.40;;
21917;SDS011;11123;49.882;8.662;2022-09-27T06:22:50;1.63;;;0.60;;
21917;SDS011;11123;49.882;8.662;2022-09-27T06:25:20;2.92;;;0.50;;
21917;SDS011;11123;49.882;8.662;2022-09-27T06:28:14;0.88;;;0.40;;
21917;SDS011;11123;49.882;8.662;2022-09-27T06:30:48;1.00;;;0.50;;
21917;SDS011;11123;49.882;8.662;2022-09-27T06:33:26;1.50;;;0.50;;
21917;SDS011;11123;49.882;8.662;2022-09-27T06:35:59;2.13;;;0.70;;
21917;SDS011;11123;49.882;8.662;2022-09-27T06:38:29;1.63;;;0.50;;
21917;SDS011;11123;49.882;8.662;2022-09-27T06:41:15;1.33;;;0.60;;
21917;SDS011;11123;49.882;8.662;2022-09-27T06:44:03;0.82;;;0.38;;
21917;SDS011;11123;49.882;8.662;2022-09-27T06:46:58;1.40;;;0.30;;
21917;SDS011;11123;49.882;8.662;2022-09-27T06:49:44;1.10;;;0.40;;
21917;SDS011;11123;49.882;8.662;2022-09-27T06:52:15;1.63;;;0.40;;
21917;SDS011;11123;49.882;8.662;2022-09-27T06:54:44;1.88;;;0.50;;
21917;SDS011;11123;49.882;8.662;2022-09-27T06:57:12;1.23;;;0.40;;
21917;SDS011;11123;49.882;8.662;2022-09-27T07:00:02;0.70;;;0.32;;
21917;SDS011;11123;49.882;8.662;2022-09-27T07:03:08;1.27;;;0.40;;
21917;SDS011;11123;49.882;8.662;2022-09-27T07:06:13;1.17;;;0.50;;
21917;SDS011;11123;49.882;8.662;2022-09-27T07:08:49;1.75;;;0.40;;
21917;SDS011;11123;49.882;8.662;2022-09-27T07:11:20;1.95;;;0.50;;
21917;SDS011;11123;49.882;8.662;2022-09-27T07:13:50;5.70;;;0.52;;
21917;SDS011;11123;49.882;8.662;2022-09-27T07:16:19;0.70;;;0.30;;
21917;SDS011;11123;49.882;8.662;2022-09-27T07:18:48;0.80;;;0.30;;
21917;SDS011;11123;49.882;8.662;2022-09-27T07:21:18;2.15;;;0.50;;
21917;SDS011;11123;49.882;8.662;2022-09-27T07:23:47;0.88;;;0.30;;
21917;SDS011;11123;49.882;8.662;2022-09-27T07:26:15;0.90;;;0.40;;
21917;SDS011;11123;49.882;8.662;2022-09-27T07:28:44;0.68;;;0.38;;
21917;SDS011;11123;49.882;8.662;2022-09-27T07:31:16;1.90;;;0.47;;
21917;SDS011;11123;49.882;8.662;2022-09-27T07:33:45;5.18;;;0.52;;
21917;SDS011;11123;49.882;8.662;2022-09-27T07:36:13;2.72;;;0.30;;
21917;SDS011;11123;49.882;8.662;2022-09-27T07:38:46;3.90;;;0.30;;
21917;SDS011;11123;49.882;8.662;2022-09-27T07:41:17;0.47;;;0.20;;
21917;SDS011;11123;49.882;8.662;2022-09-27T07:43:45;1.88;;;0.32;;
21917;SDS011;11123;49.882;8.662;2022-09-27T07:46:14;1.33;;;0.45;;
21917;SDS011;11123;49.882;8.662;2022-09-27T07:48:49;1.38;;;0.38;;
21917;SDS011;11123;49.882;8.662;2022-09-27T07:51:36;0.65;;;0.30;;
21917;SDS011;11123;49.882;8.662;2022-09-27T07:54:09;0.90;;;0.30;;
21917;SDS011;11123;49.882;8.662;2022-09-27T07:57:07;1.00;;;0.40;;
21917;SDS011;11123;49.882;8.662;2022-09-27T07:59:46;2.05;;;0.40;;
21917;SDS011;11123;49.882;8.662;2022-09-27T08:02:18;3.38;;;0.60;;
21917;SDS011;11123;49.882;8.662;2022-09-27T08:04:48;1.17;;;0.22;;
21917;SDS011;11123;49.882;8.662;2022-09-27T08:07:17;0.90;;;0.30;;
21917;SDS011;11123;49.882;8.662;2022-09-27T08:09:51;2.28;;;0.30;;
21917;SDS011;11123;49.882;8.662;2022-09-27T08:12:20;1.52;;;0.52;;
21917;SDS011;11123;49.882;8.662;2022-09-27T08:14:49;2.25;;;1.05;;
21917;SDS011;11123;49.882;8.662;2022-09-27T08:17:19;1.00;;;0.32;;
21917;SDS011;11123;49.882;8.662;2022-09-27T08:20:06;0.98;;;0.40;;
21917;SDS011;11123;49.882;8.662;2022-09-27T08:23:10;1.75;;;0.43;;
21917;SDS011;11123;49.882;8.662;2022-09-27T08:25:43;1.58;;;0.45;;
21917;SDS011;11123;49.882;8.662;2022-09-27T08:28:35;1.13;;;0.38;;
21917;SDS011;11123;49.882;8.662;2022-09-27T08:31:12;1.83;;;0.30;;
21917;SDS011;11123;49.882;8.662;2022-09-27T08:33:41;0.68;;;0.30;;
21917;SDS011;11123;49.882;8.662;2022-09-27T08:36:10;0.98;;;0.30;;
21917;SDS011;11123;49.882;8.662;2022-09-27T08:38:39;1.55;;;0.32;;
21917;SDS011;11123;49.882;8.662;2022-09-27T08:41:10;1.17;;;0.28;;
21917;SDS011;11123;49.882;8.662;2022-09-27T08:43:45;0.60;;;0.30;;
21917;SDS011;11123;49.882;8.662;2022-09-27T08:46:23;1.10;;;0.38;;
21917;SDS011;11123;49.882;8.662;2022-09-27T08:49:02;0.50;;;0.30;;
21917;SDS011;11123;49.882;8.662;2022-09-27T08:51:36;3.22;;;0.70;;
21917;SDS011;11123;49.882;8.662;2022-09-27T08:54:07;1.02;;;0.38;;
21917;SDS011;11123;49.882;8.662;2022-09-27T08:56:42;4.28;;;0.52;;
21917;SDS011;11123;49.882;8.662;2022-09-27T08:59:11;3.08;;;0.40;;
21917;SDS011;11123;49.882;8.662;2022-09-27T09:01:43;2.65;;;0.50;;
21917;SDS011;11123;49.882;8.662;2022-09-27T09:04:20;2.85;;;0.30;;
21917;SDS011;11123;49.882;8.662;2022-09-27T09:06:57;0.82;;;0.35;;
21917;SDS011;11123;49.882;8.662;2022-09-27T09:09:37;1.65;;;0.30;;
21917;SDS011;11123;49.882;8.662;2022-09-27T09:12:23;2.70;;;0.45;;
21917;SDS011;11123;49.882;8.662;2022-09-27T09:15:19;1.17;;;0.40;;
21917;SDS011;11123;49.882;8.662;2022-09-27T09:18:25;1.48;;;0.60;;
21917;SDS011;11123;49.882;8.662;2022-09-27T09:21:13;0.77;;;0.30;;
21917;SDS011;11123;49.882;8.662;2022-09-27T09:24:07;1.52;;;0.30;;
21917;SDS011;11123;49.882;8.662;2022-09-27T09:26:49;1.70;;;0.68;;
21917;SDS011;11123;49.882;8.662;2022-09-27T09:29:32;1.98;;;0.38;;
21917;SDS011;11123;49.882;8.662;2022-09-27T09:32:16;1.30;;;0.40;;
21917;SDS011;11123;49.882;8.662;2022-09-27T09:34:55;2.75;;;0.40;;
21917;SDS011;11123;49.882;8.662;2022-09-27T09:37:29;1.13;;;0.30;;
21917;SDS011;11123;49.882;8.662;2022-09-27T09:40:04;0.77;;;0.22;;
21917;SDS011;11123;49.882;8.662;2022-09-27T09:42:44;1.58;;;0.38;;
21917;SDS011;11123;49.882;8.662;2022-09-27T09:45:21;1.67;;;0.40;;
21917;SDS011;11123;49.882;8.662;2022-09-27T09:47:56;2.22;;;0.30;;
21917;SDS011;11123;49.882;8.662;2022-09-27T09:50:29;0.65;;;0.30;;
21917;SDS011;11123;49.882;8.662;2022-09-27T09:53:09;1.48;;;0.28;;
21917;SDS011;11123;49.882;8.662;2022-09-27T09:55:41;0.60;;;0.22;;
21917;SDS011;11123;49.882;8.662;2022-09-27T09:58:20;1.08;;;0.38;;
21917;SDS011;11123;49.882;8.662;2022-09-27T10:01:00;1.65;;;0.20;;
21917;SDS011;11123;49.882;8.662;2022-09-27T10:03:41;2.42;;;0.30;;
21917;SDS011;11123;49.882;8.662;2022-09-27T10:06:10;2.13;;;0.47;;
21917;SDS011;11123;49.882;8.662;2022-09-27T10:08:39;2.28;;;0.50;;
21917;SDS011;11123;49.882;8.662;2022-09-27T10:11:31;1.27;;;0.45;;
21917;SDS011;11123;49.882;8.662;2022-09-27T10:14:08;2.00;;;0.38;;
21917;SDS011;11123;49.882;8.662;2022-09-27T10:16:40;2.55;;;0.50;;
21917;SDS011;11123;49.882;8.662;2022-09-27T10:19:14;1.20;;;0.47;;
21917;SDS011;11123;49.882;8.662;2022-09-27T10:21:48;2.72;;;0.60;;
21917;SDS011;11123;49.882;8.662;2022-09-27T10:24:18;1.33;;;0.50;;
21917;SDS011;11123;49.882;8.662;2022-09-27T10:27:05;2.03;;;0.50;;
21917;SDS011;11123;49.882;8.662;2022-09-27T10:29:35;2.58;;;0.57;;
21917;SDS011;11123;49.882;8.662;2022-09-27T10:32:20;0.50;;;0.30;;
21917;SDS011;11123;49.882;8.662;2022-09-27T10:35:31;0.73;;;0.30;;
21917;SDS011;11123;49.882;8.662;2022-09-27T10:41:21;1.98;;;0.40;;
21917;SDS011;11123;49.882;8.662;2022-09-27T10:44:02;2.75;;;0.38;;
21917;SDS011;11123;49.882;8.662;2022-09-27T10:46:51;0.80;;;0.20;;
21917;SDS011;11123;49.882;8.662;2022-09-27T10:49:46;2.35;;;0.68;;
21917;SDS011;11123;49.882;8.662;2022-09-27T10:52:33;1.15;;;0.20;;
21917;SDS011;11123;49.882;8.662;2022-09-27T10:55:05;0.32;;;0.10;;
21917;SDS011;11123;49.882;8.662;2022-09-27T10:57:47;0.88;;;0.20;;
21917;SDS011;11123;49.882;8.662;2022-09-27T11:00:19;1.13;;;0.20;;
21917;SDS011;11123;49.882;8.662;2022-09-27T11:02:50;0.98;;;0.30;;
21917;SDS011;11123;49.882;8.662;2022-09-27T11:05:33;2.90;;;0.40;;
21917;SDS011;11123;49.882;8.662;2022-09-27T11:08:19;1.30;;;0.30;;
21917;SDS011;11123;49.882;8.662;2022-09-27T11:11:04;0.68;;;0.22;;
21917;SDS011;11123;49.882;8.662;2022-09-27T11:13:36;0.98;;;0.30;;
21917;SDS011;11123;49.882;8.662;2022-09-27T11:16:15;1.00;;;0.28;;
21917;SDS011;11123;49.882;8.662;2022-09-27T11:18:56;0.80;;;0.30;;
21917;SDS011;11123;49.882;8.662;2022-09-27T11:21:39;1.70;;;0.45;;
21917;SDS011;11123;49.882;8.662;2022-09-27T11:24:20;0.95;;;0.40;;
21917;SDS011;11123;49.882;8.662;2022-09-27T11:27:02;1.80;;;0.40;;
21917;SDS011;11123;49.882;8.662;2022-09-27T11:29:44;2.67;;;0.40;;
21917;SDS011;11123;49.882;8.662;2022-09-27T11:32:29;2.70;;;0.52;;
21917;SDS011;11123;49.882;8.662;2022-09-27T11:35:17;1.08;;;0.50;;
21917;SDS011;11123;49.882;8.662;2022-09-27T11:38:08;3.15;;;0.50;;
21917;SDS011;11123;49.882;8.662;2022-09-27T11:41:16;1.60;;;0.50;;
21917;SDS011;11123;49.882;8.662;2022-09-27T11:44:00;1.48;;;0.50;;
21917;SDS011;11123;49.882;8.662;2022-09-27T11:46:46;1.83;;;0.45;;
21917;SDS011;11123;49.882;8.662;2022-09-27T11:49:27;2.42;;;0.50;;
21917;SDS011;11123;49.882;8.662;2022-09-27T11:52:17;1.48;;;0.50;;
21917;SDS011;11123;49.882;8.662;2022-09-27T11:55:01;1.50;;;0.50;;
21917;SDS011;11123;49.882;8.662;2022-09-27T11:57:41;2.63;;;0.77;;
21917;SDS011;11123;49.882;8.662;2022-09-27T12:00:17;3.40;;;0.50;;
21917;SDS011;11123;49.882;8.662;2022-09-27T12:03:21;2.20;;;0.52;;
21917;SDS011;11123;49.882;8.662;2022-09-27T12:06:06;1.85;;;0.68;;
21917;SDS011;11123;49.882;8.662;2022-09-27T12:08:48;1.08;;;0.30;;
21917;SDS011;11123;49.882;8.662;2022-09-27T12:11:28;1.85;;;0.40;;
21917;SDS011;11123;49.882;8.662;2022-09-27T12:14:05;2.13;;;0.50;;
21917;SDS011;11123;49.882;8.662;2022-09-27T12:16:38;0.82;;;0.35;;
21917;SDS011;11123;49.882;8.662;2022-09-27T12:19:10;2.47;;;0.60;;
21917;SDS011;11123;49.882;8.662;2022-09-27T12:22:03;3.70;;;0.70;;
21917;SDS011;11123;49.882;8.662;2022-09-27T12:24:38;2.08;;;0.60;;
21917;SDS011;11123;49.882;8.662;2022-09-27T12:27:20;2.53;;;0.88;;
21917;SDS011;11123;49.882;8.662;2022-09-27T12:29:58;4.28;;;0.88;;
21917;SDS011;11123;49.882;8.662;2022-09-27T12:32:29;2.95;;;0.73;;
21917;SDS011;11123;49.882;8.662;2022-09-27T12:35:05;2.95;;;0.75;;
21917;SDS011;11123;49.882;8.662;2022-09-27T12:37:43;4.53;;;0.70;;
21917;SDS011;11123;49.882;8.662;2022-09-27T12:40:16;1.95;;;0.60;;
21917;SDS011;11123;49.882;8.662;2022-09-27T12:42:51;1.35;;;0.50;;
21917;SDS011;11123;49.882;8.662;2022-09-27T12:45:27;2.25;;;0.75;;
21917;SDS011;11123;49.882;8.662;2022-09-27T12:48:04;4.20;;;0.85;;
21917;SDS011;11123;49.882;8.662;2022-09-27T12:50:39;2.80;;;0.70;;
21917;SDS011;11123;49.882;8.662;2022-09-27T12:53:12;2.47;;;0.70;;
21917;SDS011;11123;49.882;8.662;2022-09-27T12:55:54;2.67;;;0.60;;
21917;SDS011;11123;49.882;8.662;2022-09-27T12:58:40;3.20;;;1.10;;
21917;SDS011;11123;49.882;8.662;2022-09-27T13:01:34;1.58;;;0.70;;
21917;SDS011;11123;49.882;8.662;2022-09-27T13:07:22;1.80;;;0.60;;
21917;SDS011;11123;49.882;8.662;2022-09-27T13:10:19;2.17;;;0.50;;
21917;SDS011;11123;49.882;8.662;2022-09-27T13:13:04;3.45;;;0.50;;
21917;SDS011;11123;49.882;8.662;2022-09-27T13:15:41;4.45;;;1.40;;
21917;SDS011;11123;49.882;8.662;2022-09-27T13:18:27;1.77;;;0.60;;
21917;SDS011;11123;49.882;8.662;2022-09-27T13:20:58;3.40;;;0.52;;
21917;SDS011;11123;49.882;8.662;2022-09-27T13:26:47;1.92;;;0.60;;
21917;SDS011;11123;49.882;8.662;2022-09-27T13:29:20;1.40;;;0.50;;
21917;SDS011;11123;49.882;8.662;2022-09-27T13:32:10;2.03;;;0.65;;
21917;SDS011;11123;49.882;8.662;2022-09-27T13:35:09;1.98;;;0.50;;
21917;SDS011;11123;49.882;8.662;2022-09-27T13:37:55;2.13;;;0.57;;
21917;SDS011;11123;49.882;8.662;2022-09-27T13:40:31;2.08;;;0.70;;
21917;SDS011;11123;49.882;8.662;2022-09-27T13:46:24;1.50;;;0.50;;
21917;SDS011;11123;49.882;8.662;2022-09-27T13:48:56;0.95;;;0.32;;
21917;SDS011;11123;49.882;8.662;2022-09-27T13:51:48;1.77;;;0.35;;
21917;SDS011;11123;49.882;8.662;2022-09-27T13:54:35;1.27;;;0.50;;
21917;SDS011;11123;49.882;8.662;2022-09-27T14:00:13;1.80;;;0.43;;
21917;SDS011;11123;49.882;8.662;2022-09-27T14:02:50;2.10;;;0.52;;
21917;SDS011;11123;49.882;8.662;2022-09-27T14:05:26;1.30;;;0.50;;
21917;SDS011;11123;49.882;8.662;2022-09-27T14:07:59;1.48;;;0.43;;
21917;SDS011;11123;49.882;8.662;2022-09-27T14:10:30;2.45;;;0.50;;
21917;SDS011;11123;49.882;8.662;2022-09-27T14:13:01;0.77;;;0.30;;
21917;SDS011;11123;49.882;8.662;2022-09-27T14:15:40;0.80;;;0.40;;
21917;SDS011;11123;49.882;8.662;2022-09-27T14:18:11;1.55;;;0.30;;
21917;SDS011;11123;49.882;8.662;2022-09-27T14:20:43;1.83;;;0.20;;
21917;SDS011;11123;49.882;8.662;2022-09-27T14:23:31;1.95;;;0.73;;
21917;SDS011;11123;49.882;8.662;2022-09-27T14:26:00;2.20;;;0.50;;
21917;SDS011;11123;49.882;8.662;2022-09-27T14:28:30;1.55;;;0.60;;
21917;SDS011;11123;49.882;8.662;2022-09-27T14:31:22;1.75;;;0.70;;
21917;SDS011;11123;49.882;8.662;2022-09-27T14:34:12;2.47;;;0.60;;
21917;SDS011;11123;49.882;8.662;2022-09-27T14:36:46;1.48;;;0.50;;
21917;SDS011;11123;49.882;8.662;2022-09-27T14:39:43;1.92;;;0.90;;
21917;SDS011;11123;49.882;8.662;2022-09-27T14:42:28;1.83;;;0.57;;
21917;SDS011;11123;49.882;8.662;2022-09-27T14:45:03;1.65;;;0.75;;
21917;SDS011;11123;49.882;8.662;2022-09-27T14:47:48;3.60;;;0.68;;
21917;SDS011;11123;49.882;8.662;2022-09-27T14:50:19;2.03;;;0.80;;
21917;SDS011;11123;49.882;8.662;2022-09-27T14:52:51;1.45;;;0.60;;
21917;SDS011;11123;49.882;8.662;2022-09-27T14:55:22;1.33;;;0.70;;
21917;SDS011;11123;49.882;8.662;2022-09-27T14:57:54;2.58;;;0.70;;
21917;SDS011;11123;49.882;8.662;2022-09-27T15:00:24;3.88;;;0.60;;
21917;SDS011;11123;49.882;8.662;2022-09-27T15:02:57;1.25;;;0.50;;
21917;SDS011;11123;49.882;8.662;2022-09-27T15:05:30;2.65;;;0.80;;
21917;SDS011;11123;49.882;8.662;2022-09-27T15:08:02;1.77;;;0.68;;
21917;SDS011;11123;49.882;8.662;2022-09-27T15:10:33;1.08;;;0.65;;
21917;SDS011;11123;49.882;8.662;2022-09-27T15:13:03;1.70;;;0.60;;
21917;SDS011;11123;49.882;8.662;2022-09-27T15:15:32;3.22;;;0.80;;
21917;SDS011;11123;49.882;8.662;2022-09-27T15:20:56;2.13;;;0.82;;
21917;SDS011;11123;49.882;8.662;2022-09-27T15:23:27;1.77;;;0.80;;
21917;SDS011;11123;49.882;8.662;2022-09-27T15:25:57;3.53;;;1.13;;
21917;SDS011;11123;49.882;8.662;2022-09-27T15:28:30;3.63;;;1.20;;
21917;SDS011;11123;49.882;8.662;2022-09-27T15:30:59;1.98;;;0.80;;
21917;SDS011;11123;49.882;8.662;2022-09-27T15:33:28;2.60;;;0.82;;
21917;SDS011;11123;49.882;8.662;2022-09-27T15:35:58;2.70;;;0.95;;
21917;SDS011;11123;49.882;8.662;2022-09-27T15:38:30;1.77;;;0.82;;
21917;SDS011;11123;49.882;8.662;2022-09-27T15:41:01;2.38;;;0.80;;
21917;SDS011;11123;49.882;8.662;2022-09-27T15:43:33;1.65;;;0.60;;
21917;SDS011;11123;49.882;8.662;2022-09-27T15:51:50;2.47;;;1.10;;
21917;SDS011;11123;49.882;8.662;2022-09-27T15:54:20;1.30;;;0.70;;
21917;SDS011;11123;49.882;8.662;2022-09-27T15:56:50;2.55;;;1.00;;
21917;SDS011;11123;49.882;8.662;2022-09-27T15:59:21;3.05;;;1.27;;
21917;SDS011;11123;49.882;8.662;2022-09-27T16:01:54;3.95;;;1.20;;
21917;SDS011;11123;49.882;8.662;2022-09-27T16:04:25;2.05;;;1.00;;
21917;SDS011;11123;49.882;8.662;2022-09-27T16:06:57;1.85;;;1.00;;
21917;SDS011;11123;49.882;8.662;2022-09-27T16:09:29;3.03;;;1.15;;
21917;SDS011;11123;49.882;8.662;2022-09-27T16:11:57;4.35;;;1.90;;